Worthington, Indiana
Current Conditions -  °F | °C
As of 6:18 PM on Thursday 27 Nov 2014 (Local Time) from KBMG Reporting Station
Light Snow Light Snow  
Wind Chill: 27°   Ceiling: 3500
Heat Index: 27°   Visibility: 3mi
Dew Point: 23°   Wind: 3mph
Humidity: 85%   Direction: 300°WNW
Pressure: 30.39"   Gusts: NA
Location:  39.13°N, 86.98°W
Report Text: KBMG 272318Z 30003KT 3SM -SN BR FEW027 OVC035 M03/M05 A3039 RMK AO2 P0000 T10281050
Loading
Personal Weather Stations






























Interactive Weather Map New forecast layout! Learn more

10-Day Weather Forecast

Advertisements
Track Severe Weather on mobile